Time;durP1;ratioP1;P1;durP2;ratioP2;P2;SDS_P1;SDS_P2;PMS_P1;PMS_P2;Temp;Humidity;BMP_temperature;BMP_pressure;BME280_temperature;BME280_humidity;BME280_pressure;Samples;Min_cycle;Max_cycle;Signal;HPM_P1;HPM_P2
2021/09/13 00:02:18;;;;;;;2.50;2.20;;;23.60;82.80;;;;;;5143670;27;20481;-42
2021/09/13 00:04:50;;;;;;;1.97;1.77;;;23.70;81.20;;;;;;5144652;27;20481;-42
2021/09/13 00:07:20;;;;;;;3.13;2.33;;;23.70;80.50;;;;;;5144408;27;20517;-42
2021/09/13 00:09:52;;;;;;;3.27;2.50;;;23.70;80.60;;;;;;5144385;27;20467;-43
2021/09/13 00:12:23;;;;;;;2.67;2.47;;;23.50;81.60;;;;;;5144762;27;20431;-42
2021/09/13 00:14:54;;;;;;;3.00;2.13;;;23.50;82.80;;;;;;5144526;27;20498;-43
2021/09/13 00:17:26;;;;;;;3.37;1.80;;;23.50;82.70;;;;;;5143210;27;20424;-43
2021/09/13 00:19:58;;;;;;;2.57;1.67;;;23.20;81.40;;;;;;5143709;27;20463;-42
2021/09/13 00:22:29;;;;;;;4.33;2.30;;;23.10;81.80;;;;;;5143437;27;20975;-42
2021/09/13 00:25:00;;;;;;;1.93;1.73;;;22.80;84.30;;;;;;5143228;27;20449;-42
2021/09/13 00:27:31;;;;;;;2.83;2.20;;;22.80;83.30;;;;;;5143463;27;20451;-42
2021/09/13 00:30:02;;;;;;;4.10;1.77;;;23.00;82.20;;;;;;5143237;27;20441;-42
2021/09/13 00:32:37;;;;;;;2.57;2.13;;;23.10;82.00;;;;;;5140222;27;20507;-42
2021/09/13 00:35:08;;;;;;;3.40;2.10;;;23.00;83.00;;;;;;5142699;27;20552;-42
2021/09/13 00:37:39;;;;;;;2.80;2.00;;;23.00;82.20;;;;;;5143778;27;20895;-42
2021/09/13 00:40:12;;;;;;;3.80;2.30;;;22.90;82.10;;;;;;5140431;27;20478;-42
2021/09/13 00:42:43;;;;;;;3.53;1.80;;;22.80;82.90;;;;;;5143549;27;20500;-42
2021/09/13 00:45:14;;;;;;;7.20;2.37;;;22.70;82.90;;;;;;5142852;27;20452;-42
2021/09/13 00:47:47;;;;;;;2.10;1.70;;;22.50;83.80;;;;;;5144198;27;20437;-42
2021/09/13 00:50:19;;;;;;;2.60;1.90;;;22.40;84.40;;;;;;5144048;27;20441;-42
2021/09/13 00:52:55;;;;;;;2.53;1.83;;;22.30;84.60;;;;;;5142999;27;20427;-41
2021/09/13 00:55:26;;;;;;;2.20;1.90;;;22.20;84.20;;;;;;5143555;27;20510;-43
2021/09/13 00:57:57;;;;;;;6.53;2.10;;;22.10;83.40;;;;;;5142616;27;20423;-41
2021/09/13 01:00:29;;;;;;;2.97;1.83;;;22.10;83.60;;;;;;5143553;27;20445;-42
2021/09/13 01:03:01;;;;;;;3.40;3.20;;;22.10;85.10;;;;;;5141373;27;20523;-42
2021/09/13 01:05:36;;;;;;;2.30;2.00;;;22.20;85.00;;;;;;5142114;27;20818;-42
2021/09/13 01:08:07;;;;;;;3.53;2.17;;;22.10;84.40;;;;;;5141437;27;20865;-42
2021/09/13 01:10:38;;;;;;;2.73;1.83;;;22.20;82.80;;;;;;5138759;27;20533;-42
2021/09/13 01:13:09;;;;;;;2.47;1.80;;;22.10;82.60;;;;;;5141732;27;20440;-43
2021/09/13 01:15:41;;;;;;;2.77;1.80;;;22.00;82.60;;;;;;5143757;27;20444;-43
2021/09/13 01:18:13;;;;;;;3.10;1.90;;;22.00;82.40;;;;;;5143704;27;20916;-43
2021/09/13 01:20:44;;;;;;;2.70;1.70;;;22.00;81.60;;;;;;5143080;27;20575;-42
2021/09/13 01:23:24;;;;;;;2.20;2.00;;;21.90;81.70;;;;;;5141225;28;20504;-42
2021/09/13 01:25:55;;;;;;;3.10;2.60;;;21.70;83.00;;;;;;5140682;28;20423;-42
2021/09/13 01:28:27;;;;;;;4.53;2.23;;;21.60;83.70;;;;;;5143475;28;20447;-43
2021/09/13 01:30:58;;;;;;;2.40;1.90;;;21.60;83.30;;;;;;5138751;28;20469;-43
2021/09/13 01:33:30;;;;;;;3.43;2.30;;;21.50;82.80;;;;;;5141213;28;20567;-42
2021/09/13 01:36:01;;;;;;;3.80;2.57;;;21.30;83.00;;;;;;5141932;28;20428;-42
2021/09/13 01:38:34;;;;;;;2.00;1.90;;;21.20;83.20;;;;;;5143207;27;20986;-42
2021/09/13 01:41:06;;;;;;;1.97;1.80;;;21.10;82.60;;;;;;5136124;28;20910;-42
2021/09/13 01:43:36;;;;;;;2.87;2.13;;;21.00;82.50;;;;;;5143062;28;20479;-43
2021/09/13 01:46:07;;;;;;;5.20;2.27;;;20.80;83.80;;;;;;5143857;27;20445;-43
2021/09/13 01:48:38;;;;;;;1.77;1.63;;;20.80;82.10;;;;;;5143799;28;20427;-42
2021/09/13 01:51:09;;;;;;;2.73;2.53;;;20.70;82.90;;;;;;5143311;28;20480;-42
2021/09/13 01:53:42;;;;;;;2.50;1.83;;;20.60;83.40;;;;;;5142513;28;20447;-43
2021/09/13 01:56:13;;;;;;;2.70;1.87;;;20.50;84.00;;;;;;5141846;28;20447;-42
2021/09/13 01:58:44;;;;;;;2.30;1.80;;;20.40;84.20;;;;;;5142311;27;20483;-42
2021/09/13 02:01:15;;;;;;;3.13;2.37;;;20.40;84.40;;;;;;5143215;28;20444;-42
2021/09/13 02:03:46;;;;;;;3.50;2.30;;;20.20;84.40;;;;;;5140850;27;20544;-41
2021/09/13 02:06:18;;;;;;;2.37;2.17;;;20.00;85.00;;;;;;5148294;27;20851;-42
2021/09/13 02:08:51;;;;;;;2.33;1.63;;;20.00;84.20;;;;;;5146409;27;20427;-42
2021/09/13 02:11:22;;;;;;;2.40;1.90;;;20.00;83.60;;;;;;5147724;27;20441;-42
2021/09/13 02:13:52;;;;;;;3.43;2.20;;;19.90;84.60;;;;;;5132753;27;20419;-42
2021/09/13 02:16:23;;;;;;;3.03;1.90;;;19.90;85.00;;;;;;5148099;27;20408;-42
2021/09/13 02:18:54;;;;;;;2.33;2.13;;;19.90;84.10;;;;;;5147091;27;20423;-42
2021/09/13 02:21:25;;;;;;;3.63;1.60;;;19.70;84.40;;;;;;5147432;27;20487;-41
2021/09/13 02:23:58;;;;;;;2.27;1.93;;;19.70;84.90;;;;;;5147181;27;20512;-41
2021/09/13 02:26:29;;;;;;;4.00;1.80;;;19.70;84.70;;;;;;5143581;27;20455;-41
2021/09/13 02:29:00;;;;;;;2.87;2.10;;;19.70;85.30;;;;;;5142303;27;20515;-42
2021/09/13 02:31:31;;;;;;;2.40;2.00;;;19.60;85.00;;;;;;5143474;27;20735;-42
2021/09/13 02:34:02;;;;;;;3.10;2.00;;;19.60;85.10;;;;;;5144667;27;20528;-42
2021/09/13 02:36:33;;;;;;;1.93;1.53;;;19.50;84.90;;;;;;5145235;27;20490;-42
2021/09/13 02:39:06;;;;;;;3.00;2.13;;;19.50;85.10;;;;;;5144829;27;20491;-42
2021/09/13 02:41:37;;;;;;;1.90;1.70;;;19.40;85.80;;;;;;5145410;27;20903;-41
2021/09/13 02:44:08;;;;;;;5.13;1.60;;;19.30;86.40;;;;;;5146811;27;20511;-42
2021/09/13 02:46:39;;;;;;;5.03;2.13;;;19.20;86.60;;;;;;5145810;27;20456;-42
2021/09/13 02:49:10;;;;;;;3.83;1.90;;;19.10;87.10;;;;;;5146522;27;20482;-41
2021/09/13 02:51:41;;;;;;;7.63;2.10;;;19.00;87.20;;;;;;5146440;27;20430;-42
2021/09/13 02:54:13;;;;;;;2.80;1.90;;;18.90;87.80;;;;;;5144073;27;20452;-42
2021/09/13 02:56:45;;;;;;;3.40;1.60;;;18.80;88.40;;;;;;5145251;27;20497;-42
2021/09/13 02:59:16;;;;;;;2.77;2.07;;;18.70;88.50;;;;;;5143562;27;20459;-41
2021/09/13 03:01:47;;;;;;;3.73;2.00;;;18.70;88.60;;;;;;5146441;27;20817;-42
2021/09/13 03:04:19;;;;;;;3.70;1.97;;;18.60;89.40;;;;;;5145663;27;20488;-42
2021/09/13 03:06:51;;;;;;;2.97;2.03;;;18.50;89.60;;;;;;5145924;27;20481;-41
2021/09/13 03:09:23;;;;;;;4.20;1.50;;;18.50;89.90;;;;;;5145583;27;20445;-42
2021/09/13 03:11:54;;;;;;;2.67;1.73;;;18.40;90.10;;;;;;5146397;27;20493;-42
2021/09/13 03:14:25;;;;;;;3.13;1.87;;;18.30;90.10;;;;;;5145757;27;20441;-42
2021/09/13 03:16:56;;;;;;;9.30;3.47;;;18.30;90.40;;;;;;5145217;27;20449;-41
2021/09/13 03:19:28;;;;;;;1.97;1.87;;;18.30;90.70;;;;;;5145540;27;20445;-42
2021/09/13 03:21:59;;;;;;;2.33;1.80;;;18.20;90.60;;;;;;5146197;27;20437;-42
2021/09/13 03:24:31;;;;;;;2.80;1.50;;;18.20;91.10;;;;;;5144217;27;20529;-42
2021/09/13 03:27:03;;;;;;;2.17;1.60;;;18.10;91.20;;;;;;5145784;27;20451;-42
2021/09/13 03:29:33;;;;;;;2.03;1.83;;;18.00;91.40;;;;;;5145565;27;20504;-42
2021/09/13 03:32:05;;;;;;;5.10;1.90;;;18.00;91.40;;;;;;5147287;27;20958;-42
2021/09/13 03:34:55;;;;;;;2.57;1.97;;;17.90;91.70;;;;;;5144914;27;20441;-42
2021/09/13 03:37:26;;;;;;;1.93;1.73;;;17.80;91.80;;;;;;5144034;27;20464;-42
2021/09/13 03:39:58;;;;;;;2.27;1.37;;;17.80;92.60;;;;;;5145632;27;20452;-42
2021/09/13 03:42:29;;;;;;;2.40;2.20;;;17.80;92.30;;;;;;5142188;27;20580;-42
2021/09/13 03:45:00;;;;;;;3.40;2.03;;;17.70;92.50;;;;;;5134863;27;20467;-42
2021/09/13 03:47:31;;;;;;;3.60;1.97;;;17.70;92.60;;;;;;5147745;27;20448;-42
2021/09/13 03:50:02;;;;;;;2.93;2.03;;;17.70;92.60;;;;;;5148124;27;20452;-43
2021/09/13 03:52:33;;;;;;;2.37;1.90;;;17.70;92.40;;;;;;5143597;27;20499;-42
2021/09/13 03:55:06;;;;;;;2.03;1.83;;;17.70;92.10;;;;;;5144802;27;20483;-42
2021/09/13 03:57:37;;;;;;;1.80;1.53;;;17.70;92.00;;;;;;5144475;27;20435;-42
2021/09/13 04:00:09;;;;;;;2.67;2.47;;;17.70;92.20;;;;;;5145551;27;20465;-42
2021/09/13 04:02:42;;;;;;;2.37;1.80;;;17.60;92.20;;;;;;5128928;27;20460;-42
2021/09/13 04:05:18;;;;;;;2.87;1.73;;;17.70;92.20;;;;;;5145316;27;20479;-44
2021/09/13 04:08:14;;;;;;;2.73;2.37;;;17.60;92.40;;;;;;5144760;27;20456;-43
2021/09/13 04:11:02;;;;;;;3.37;2.27;;;17.60;92.60;;;;;;5145003;27;20455;-41
2021/09/13 04:13:33;;;;;;;2.60;1.80;;;17.50;92.90;;;;;;5144598;27;20550;-43
2021/09/13 04:16:04;;;;;;;3.87;2.10;;;17.50;92.90;;;;;;5144455;27;20441;-43
2021/09/13 04:18:35;;;;;;;3.10;2.10;;;17.40;93.10;;;;;;5144541;27;20457;-43
2021/09/13 04:21:06;;;;;;;2.73;2.00;;;17.30;93.30;;;;;;5143920;27;20791;-43
2021/09/13 04:23:37;;;;;;;3.13;2.03;;;17.30;93.60;;;;;;5142974;27;20575;-43
2021/09/13 04:26:10;;;;;;;2.97;2.23;;;17.30;93.60;;;;;;5142440;27;20448;-43
2021/09/13 04:28:41;;;;;;;5.40;2.23;;;17.30;93.80;;;;;;5143351;27;20470;-43
2021/09/13 04:31:12;;;;;;;3.70;1.77;;;17.30;93.80;;;;;;5145695;27;20445;-43
2021/09/13 04:33:43;;;;;;;1.77;1.67;;;17.30;94.10;;;;;;5144001;27;20468;-43
2021/09/13 04:36:14;;;;;;;3.27;1.90;;;17.30;94.20;;;;;;5140540;27;20446;-43
2021/09/13 04:38:45;;;;;;;3.97;1.60;;;17.30;94.30;;;;;;5140401;27;20441;-43
2021/09/13 04:41:18;;;;;;;8.10;1.50;;;17.20;94.50;;;;;;5143800;27;20509;-44
2021/09/13 04:43:49;;;;;;;2.40;2.20;;;17.20;94.70;;;;;;5143729;27;20967;-43
2021/09/13 04:46:20;;;;;;;2.33;1.43;;;17.10;94.80;;;;;;5144206;27;20488;-43
2021/09/13 04:48:51;;;;;;;3.23;1.80;;;17.10;95.10;;;;;;5144338;27;20415;-43
2021/09/13 04:51:22;;;;;;;3.07;1.97;;;16.90;95.40;;;;;;5143851;27;20484;-42
2021/09/13 04:53:53;;;;;;;2.80;1.90;;;16.90;95.90;;;;;;5143905;27;20495;-43
2021/09/13 04:56:25;;;;;;;3.20;2.70;;;16.80;96.30;;;;;;5144346;27;20473;-43
2021/09/13 04:58:56;;;;;;;2.00;1.80;;;16.70;96.70;;;;;;5142808;27;20488;-43
2021/09/13 05:01:27;;;;;;;2.87;2.00;;;16.70;97.00;;;;;;5142267;27;20928;-43
2021/09/13 05:03:59;;;;;;;3.27;1.90;;;16.60;97.10;;;;;;5128966;27;20467;-43
2021/09/13 05:06:30;;;;;;;3.57;1.67;;;16.60;97.40;;;;;;5143857;27;20529;-42
2021/09/13 05:09:01;;;;;;;3.90;2.20;;;16.60;97.50;;;;;;5139053;27;21302;-42
2021/09/13 05:11:34;;;;;;;2.33;1.80;;;16.60;97.80;;;;;;5142560;27;20490;-42
2021/09/13 05:14:05;;;;;;;3.47;2.20;;;16.60;98.10;;;;;;5143530;27;20484;-43
2021/09/13 05:16:37;;;;;;;2.00;1.67;;;16.60;98.40;;;;;;5144537;27;20524;-42
2021/09/13 05:19:08;;;;;;;1.93;1.73;;;16.60;98.80;;;;;;5143673;27;20445;-42
2021/09/13 05:21:40;;;;;;;2.53;1.70;;;16.60;98.80;;;;;;5143524;27;20452;-42
2021/09/13 05:24:11;;;;;;;3.00;1.87;;;16.50;98.70;;;;;;5139881;27;20480;-43
2021/09/13 05:26:43;;;;;;;2.77;2.17;;;16.40;99.00;;;;;;5143021;28;20551;-43
2021/09/13 05:29:14;;;;;;;3.13;1.77;;;16.40;99.30;;;;;;5142181;27;20456;-43
2021/09/13 05:31:45;;;;;;;3.30;1.90;;;16.40;99.40;;;;;;5141370;28;20468;-42
2021/09/13 05:34:16;;;;;;;3.20;2.10;;;16.30;99.80;;;;;;5131915;28;20508;-42
2021/09/13 05:36:47;;;;;;;4.47;2.57;;;16.30;99.90;;;;;;5142900;27;20445;-41
2021/09/13 05:39:18;;;;;;;2.40;2.20;;;16.20;99.90;;;;;;5145577;27;20468;-42
2021/09/13 05:41:51;;;;;;;5.00;3.43;;;16.20;99.90;;;;;;5147687;27;20474;-43
2021/09/13 05:44:22;;;;;;;3.20;1.90;;;16.20;99.90;;;;;;5131802;27;20475;-43
2021/09/13 05:46:53;;;;;;;5.60;2.13;;;16.10;99.90;;;;;;5146900;27;20426;-43
2021/09/13 05:49:24;;;;;;;2.23;1.80;;;16.10;99.90;;;;;;5147022;27;20472;-43
2021/09/13 05:51:55;;;;;;;2.43;2.20;;;16.00;99.90;;;;;;5147100;27;20449;-42
2021/09/13 05:54:26;;;;;;;4.10;2.50;;;16.10;99.90;;;;;;5143704;27;20476;-43
2021/09/13 05:56:59;;;;;;;4.07;2.57;;;16.00;99.90;;;;;;5145770;27;20481;-44
2021/09/13 05:59:30;;;;;;;5.53;2.10;;;16.00;99.90;;;;;;5146694;27;20451;-43
2021/09/13 06:02:01;;;;;;;2.40;2.20;;;15.90;99.90;;;;;;5147708;27;20448;-43
2021/09/13 06:04:33;;;;;;;2.57;1.90;;;15.90;99.90;;;;;;5147280;27;20472;-42
2021/09/13 06:07:05;;;;;;;4.60;2.50;;;15.90;99.90;;;;;;5147788;27;20449;-42
2021/09/13 06:09:36;;;;;;;3.10;2.20;;;15.90;99.90;;;;;;5146309;27;20470;-42
2021/09/13 06:12:11;;;;;;;2.50;2.30;;;15.90;99.90;;;;;;5147594;27;20550;-43
2021/09/13 06:14:42;;;;;;;4.10;2.50;;;15.90;99.90;;;;;;5146379;27;20480;-42
2021/09/13 06:17:13;;;;;;;3.10;2.87;;;15.80;99.90;;;;;;5147380;27;20440;-43
2021/09/13 06:19:46;;;;;;;3.20;2.47;;;15.80;99.90;;;;;;5147309;27;20453;-42
2021/09/13 06:22:17;;;;;;;3.50;2.40;;;15.80;99.90;;;;;;5145645;27;20448;-42
2021/09/13 06:24:48;;;;;;;3.50;2.17;;;15.70;99.90;;;;;;5145676;27;20602;-42
2021/09/13 06:27:21;;;;;;;2.60;2.47;;;15.70;99.90;;;;;;5146927;27;20480;-42
2021/09/13 06:29:52;;;;;;;3.80;2.20;;;15.60;99.90;;;;;;5146354;27;20453;-42
2021/09/13 06:32:23;;;;;;;2.63;2.43;;;15.60;99.90;;;;;;5146742;27;20487;-42
2021/09/13 06:34:54;;;;;;;2.90;2.20;;;15.60;99.90;;;;;;5143354;28;20476;-43
2021/09/13 06:37:25;;;;;;;2.70;2.10;;;15.60;99.90;;;;;;5131826;28;20449;-43
2021/09/13 06:39:58;;;;;;;3.10;2.53;;;15.60;99.90;;;;;;5144477;27;20456;-43
2021/09/13 06:42:31;;;;;;;7.60;2.30;;;15.60;99.90;;;;;;5145272;28;20449;-43
2021/09/13 06:45:09;;;;;;;3.87;2.80;;;15.50;99.90;;;;;;5144618;27;20860;-42
2021/09/13 06:47:47;;;;;;;3.43;2.60;;;15.50;99.90;;;;;;5145988;28;20445;-42
2021/09/13 06:50:21;;;;;;;3.73;2.43;;;15.50;99.90;;;;;;5144774;27;20761;-42
2021/09/13 06:52:54;;;;;;;3.17;2.70;;;15.50;99.90;;;;;;5143489;28;20487;-43
2021/09/13 06:55:25;;;;;;;3.37;2.10;;;15.50;99.90;;;;;;5130653;28;20453;-42
2021/09/13 06:57:59;;;;;;;2.30;2.10;;;15.50;99.90;;;;;;5142828;27;20546;-42
2021/09/13 07:00:30;;;;;;;2.33;2.13;;;15.50;99.90;;;;;;5145223;27;20517;-42
2021/09/13 07:03:01;;;;;;;3.50;2.30;;;15.50;99.90;;;;;;5143023;28;20444;-42
2021/09/13 07:05:33;;;;;;;2.80;2.60;;;15.60;99.90;;;;;;5142893;28;20490;-41
2021/09/13 07:08:04;;;;;;;3.10;2.80;;;15.60;99.90;;;;;;5144983;28;20968;-42
2021/09/13 07:10:35;;;;;;;1.97;1.80;;;15.60;99.90;;;;;;5144401;28;20456;-42
2021/09/13 07:13:07;;;;;;;3.13;1.60;;;15.70;99.90;;;;;;5144326;28;20448;-42
2021/09/13 07:15:38;;;;;;;2.87;1.97;;;15.70;99.90;;;;;;5144605;27;20479;-42
2021/09/13 07:18:09;;;;;;;2.83;2.30;;;15.70;99.90;;;;;;5144888;28;20502;-42
2021/09/13 07:20:41;;;;;;;2.30;1.77;;;15.80;99.90;;;;;;5149627;27;20453;-42
2021/09/13 07:23:12;;;;;;;1.87;1.60;;;15.70;99.90;;;;;;5149492;27;20897;-42
2021/09/13 07:25:43;;;;;;;1.80;1.70;;;15.70;99.90;;;;;;5130702;28;20925;-42
2021/09/13 07:28:15;;;;;;;2.33;1.50;;;15.70;99.90;;;;;;5143930;28;20464;-42
2021/09/13 07:30:46;;;;;;;3.13;1.80;;;15.60;99.90;;;;;;5141736;28;20441;-42
2021/09/13 07:33:18;;;;;;;1.80;1.70;;;15.60;99.90;;;;;;4474533;27;18808025;-42
2021/09/13 07:35:49;;;;;;;2.00;1.80;;;15.60;99.90;;;;;;5134522;27;20199;-42
2021/09/13 07:38:21;;;;;;;2.97;1.70;;;15.60;99.90;;;;;;5133387;27;20456;-42
2021/09/13 07:40:51;;;;;;;2.50;1.90;;;15.50;99.90;;;;;;5144571;27;20452;-44
2021/09/13 07:43:24;;;;;;;2.50;1.70;;;15.50;99.90;;;;;;5144669;27;20445;-42
2021/09/13 07:45:55;;;;;;;3.00;2.13;;;15.60;99.90;;;;;;5129396;27;20842;-43
2021/09/13 07:48:26;;;;;;;2.20;2.03;;;15.50;99.90;;;;;;5146074;27;20508;-42
2021/09/13 07:50:57;;;;;;;2.10;1.87;;;15.50;99.90;;;;;;5144317;27;20485;-43
2021/09/13 07:53:28;;;;;;;2.17;1.97;;;15.50;99.90;;;;;;5145224;27;20449;-42
2021/09/13 07:55:59;;;;;;;2.00;1.80;;;15.40;99.90;;;;;;5144313;27;20444;-42
2021/09/13 07:58:31;;;;;;;1.87;1.77;;;15.40;99.90;;;;;;5143353;27;20468;-42
2021/09/13 08:01:03;;;;;;;2.30;1.80;;;15.30;99.90;;;;;;5144393;27;20961;-42
2021/09/13 08:03:34;;;;;;;2.50;2.10;;;15.20;99.90;;;;;;5146039;27;20472;-43
2021/09/13 08:06:06;;;;;;;2.00;1.90;;;15.10;99.90;;;;;;5144672;27;20488;-43
2021/09/13 08:08:37;;;;;;;1.70;1.57;;;15.00;99.90;;;;;;5128409;27;20469;-43
2021/09/13 08:11:09;;;;;;;3.07;2.00;;;14.90;99.90;;;;;;5137202;27;20449;-42
2021/09/13 08:13:43;;;;;;;2.13;1.93;;;14.90;99.90;;;;;;5144939;27;20441;-43
2021/09/13 08:16:15;;;;;;;2.30;2.10;;;14.80;99.90;;;;;;5144395;27;20448;-43
2021/09/13 08:18:46;;;;;;;2.23;1.90;;;14.70;99.90;;;;;;5145257;27;20428;-43
2021/09/13 08:21:18;;;;;;;3.70;2.17;;;14.60;99.90;;;;;;5143305;27;20449;-43
2021/09/13 08:23:49;;;;;;;4.63;2.67;;;14.60;99.90;;;;;;5137057;27;20448;-43
2021/09/13 08:26:20;;;;;;;3.07;1.80;;;14.50;99.90;;;;;;5141654;27;20500;-43
2021/09/13 08:28:53;;;;;;;3.23;2.37;;;14.40;99.90;;;;;;5141002;27;20451;-44
2021/09/13 08:31:24;;;;;;;4.10;2.53;;;14.40;99.90;;;;;;5141251;27;20466;-43
2021/09/13 08:33:56;;;;;;;3.17;2.00;;;14.40;99.90;;;;;;5143193;27;20849;-42
2021/09/13 08:36:27;;;;;;;5.03;1.97;;;14.30;99.90;;;;;;5142505;27;20448;-42
2021/09/13 08:38:57;;;;;;;2.33;2.13;;;14.20;99.90;;;;;;5142843;27;20539;-42
2021/09/13 08:41:28;;;;;;;3.90;2.20;;;14.30;99.90;;;;;;5132954;27;20484;-43
2021/09/13 08:44:02;;;;;;;2.97;2.30;;;14.30;99.90;;;;;;5144359;27;20437;-43
2021/09/13 08:46:42;;;;;;;2.63;1.90;;;14.20;99.90;;;;;;5144865;27;20567;-42
2021/09/13 08:49:25;;;;;;;2.13;1.80;;;14.20;99.90;;;;;;5129988;27;20477;-43
2021/09/13 08:51:56;;;;;;;2.90;2.20;;;14.20;99.90;;;;;;5143678;27;20467;-43
2021/09/13 08:54:29;;;;;;;2.50;2.30;;;14.10;99.90;;;;;;5143829;27;20460;-43
2021/09/13 08:57:02;;;;;;;3.60;2.97;;;14.00;99.90;;;;;;5143026;27;20492;-43
2021/09/13 08:59:37;;;;;;;2.40;2.20;;;14.00;99.90;;;;;;5142591;27;20484;-43
2021/09/13 09:02:08;;;;;;;4.83;2.40;;;14.00;99.90;;;;;;5144194;27;20482;-42
2021/09/13 09:04:57;;;;;;;3.43;2.60;;;13.90;99.90;;;;;;5144238;27;20957;-43
2021/09/13 09:07:28;;;;;;;2.57;2.37;;;13.80;99.90;;;;;;5144432;27;20469;-43
2021/09/13 09:10:12;;;;;;;3.60;2.50;;;13.80;99.90;;;;;;5143255;27;20473;-43
2021/09/13 09:13:08;;;;;;;5.83;3.00;;;13.80;99.90;;;;;;5142296;27;20488;-43
2021/09/13 09:15:56;;;;;;;2.90;2.30;;;13.80;99.90;;;;;;5144596;27;20493;-43
2021/09/13 09:18:38;;;;;;;3.67;2.20;;;13.70;99.90;;;;;;5144544;27;20559;-43
2021/09/13 09:21:10;;;;;;;4.53;2.23;;;13.70;99.90;;;;;;5143532;27;20528;-45
2021/09/13 09:23:59;;;;;;;1.90;1.80;;;13.70;99.90;;;;;;5143321;27;20488;-44
2021/09/13 09:26:30;;;;;;;4.40;2.00;;;13.70;99.90;;;;;;5143937;28;20473;-44
2021/09/13 09:29:02;;;;;;;2.00;1.80;;;13.60;99.90;;;;;;5143836;27;20448;-43
2021/09/13 09:31:39;;;;;;;2.73;1.80;;;13.70;99.90;;;;;;5143150;27;21163;-44
2021/09/13 09:34:15;;;;;;;2.17;1.60;;;13.70;99.90;;;;;;5102643;28;20829;-44
2021/09/13 09:37:06;;;;;;;3.33;2.30;;;13.70;99.90;;;;;;5102359;28;20446;-44
2021/09/13 09:39:38;;;;;;;3.53;2.73;;;13.90;99.90;;;;;;5101457;28;20478;-42
2021/09/13 09:42:10;;;;;;;3.03;1.70;;;13.80;99.90;;;;;;5103161;28;20458;-44
2021/09/13 09:44:46;;;;;;;2.80;1.60;;;13.80;99.90;;;;;;5102865;28;20447;-42
2021/09/13 09:47:23;;;;;;;3.50;1.53;;;13.80;99.90;;;;;;5103157;28;20505;-42
2021/09/13 09:49:55;;;;;;;2.13;1.87;;;13.80;99.90;;;;;;5087404;28;20481;-42
2021/09/13 09:52:31;;;;;;;2.03;1.80;;;13.80;99.90;;;;;;5102683;28;20466;-42
2021/09/13 09:55:16;;;;;;;1.50;1.40;;;13.70;99.90;;;;;;5102362;28;20468;-42
2021/09/13 09:58:04;;;;;;;2.03;1.57;;;13.70;99.90;;;;;;5102374;28;20540;-42
2021/09/13 10:00:37;;;;;;;2.77;1.90;;;13.70;99.90;;;;;;5103094;28;20477;-42
2021/09/13 10:03:10;;;;;;;3.77;1.60;;;13.60;99.90;;;;;;5102360;28;20453;-42
2021/09/13 10:05:41;;;;;;;1.90;1.80;;;13.60;99.90;;;;;;5103253;28;20439;-42
2021/09/13 10:08:14;;;;;;;2.60;1.70;;;13.40;99.90;;;;;;5102524;28;20513;-42
2021/09/13 10:10:45;;;;;;;2.10;1.53;;;13.40;99.90;;;;;;5102153;28;20454;-42
2021/09/13 10:13:16;;;;;;;1.80;1.63;;;13.30;99.90;;;;;;5102137;28;20454;-42
2021/09/13 10:15:47;;;;;;;2.60;1.80;;;13.20;99.90;;;;;;5099474;28;20486;-42
2021/09/13 10:18:19;;;;;;;1.87;1.73;;;13.10;99.90;;;;;;5099681;28;20450;-42
2021/09/13 10:20:52;;;;;;;3.00;2.17;;;13.10;99.90;;;;;;5102244;28;20474;-42
2021/09/13 10:23:23;;;;;;;2.63;1.87;;;13.10;99.90;;;;;;5099252;28;20461;-42
2021/09/13 10:25:54;;;;;;;3.20;1.90;;;13.00;99.90;;;;;;5106263;28;20483;-42
2021/09/13 10:28:25;;;;;;;1.87;1.67;;;12.90;99.90;;;;;;5106219;28;20513;-41
2021/09/13 10:30:57;;;;;;;2.33;1.77;;;12.80;99.90;;;;;;5105818;28;20519;-42
2021/09/13 10:34:01;;;;;;;2.60;2.20;;;12.90;99.90;;;;;;5142626;27;20543;-42
2021/09/13 10:37:16;;;;;;;1.80;1.63;;;12.80;99.90;;;;;;5147394;27;20499;-42
2021/09/13 10:39:58;;;;;;;2.80;2.03;;;12.70;99.90;;;;;;5078417;28;20444;-42
2021/09/13 10:42:32;;;;;;;1.70;1.60;;;12.60;99.90;;;;;;5083594;28;20516;-42
2021/09/13 10:45:11;;;;;;;3.07;1.90;;;12.60;99.90;;;;;;5083757;28;20574;-42
2021/09/13 10:47:44;;;;;;;2.00;1.80;;;12.60;99.90;;;;;;5082905;28;20471;-42
2021/09/13 10:50:22;;;;;;;2.90;1.80;;;12.40;99.90;;;;;;5082109;28;20463;-42
2021/09/13 10:52:55;;;;;;;3.47;2.20;;;12.40;99.90;;;;;;5079367;28;20451;-42
2021/09/13 10:55:31;;;;;;;2.83;1.77;;;12.30;99.90;;;;;;5082084;28;20919;-42
2021/09/13 10:58:09;;;;;;;2.33;1.93;;;12.30;99.90;;;;;;5079199;28;20447;-42
2021/09/13 11:01:00;;;;;;;3.40;2.20;;;12.30;99.90;;;;;;5083987;28;20454;-42
2021/09/13 11:03:45;;;;;;;2.17;1.63;;;12.20;99.90;;;;;;5073401;28;20447;-42
2021/09/13 11:06:47;;;;;;;3.43;1.93;;;12.20;99.90;;;;;;5083957;28;20469;-42
2021/09/13 11:09:24;;;;;;;1.87;1.60;;;12.20;99.90;;;;;;5079795;28;20815;-42
2021/09/13 11:11:57;;;;;;;2.43;2.10;;;12.10;99.90;;;;;;5083368;28;20523;-43
2021/09/13 11:14:31;;;;;;;2.90;1.80;;;12.10;99.90;;;;;;5126363;27;20453;-42
2021/09/13 11:17:03;;;;;;;2.53;2.33;;;12.10;99.90;;;;;;5146389;27;20455;-42
2021/09/13 11:19:34;;;;;;;2.10;1.70;;;12.00;99.90;;;;;;5146924;27;20457;-42
2021/09/13 11:22:08;;;;;;;3.38;2.40;;;12.00;99.90;;;;;;5146166;27;20457;-42
2021/09/13 11:24:41;;;;;;;3.00;2.57;;;12.00;99.90;;;;;;5145867;27;20195;-42
2021/09/13 11:27:13;;;;;;;2.20;2.00;;;11.90;99.90;;;;;;5145207;27;20504;-42
2021/09/13 11:29:46;;;;;;;3.30;2.10;;;11.80;99.90;;;;;;5145907;27;20509;-42
2021/09/13 11:32:18;;;;;;;3.67;2.47;;;11.80;99.90;;;;;;5146353;27;20473;-42
2021/09/13 11:34:51;;;;;;;3.80;2.50;;;11.80;99.90;;;;;;5144574;27;20457;-43
2021/09/13 11:37:26;;;;;;;1.90;1.80;;;11.70;99.90;;;;;;5144777;27;20455;-43
2021/09/13 11:40:17;;;;;;;3.40;2.27;;;11.70;99.90;;;;;;5145622;27;20428;-42
2021/09/13 11:42:48;;;;;;;3.63;2.27;;;11.70;99.90;;;;;;5146200;27;20453;-42
2021/09/13 11:45:19;;;;;;;2.50;2.30;;;11.60;99.90;;;;;;5145260;27;20464;-43
2021/09/13 11:47:55;;;;;;;3.57;1.90;;;11.60;99.90;;;;;;5145213;27;20484;-42
2021/09/13 11:50:26;;;;;;;2.10;1.90;;;11.70;99.90;;;;;;5145281;27;20986;-42
2021/09/13 11:52:59;;;;;;;3.20;2.08;;;11.60;99.90;;;;;;5145682;27;20208;-41
2021/09/13 11:55:30;;;;;;;3.50;2.50;;;11.60;99.90;;;;;;5143794;27;20213;-42
2021/09/13 11:58:01;;;;;;;3.90;2.27;;;11.50;99.90;;;;;;5144713;27;20490;-42
2021/09/13 12:00:35;;;;;;;2.30;2.10;;;11.50;99.90;;;;;;5145351;27;20444;-42
2021/09/13 12:03:09;;;;;;;3.63;2.30;;;11.50;99.90;;;;;;5127980;27;20457;-42
2021/09/13 12:05:43;;;;;;;2.10;1.90;;;11.40;99.90;;;;;;5143381;27;20452;-42
2021/09/13 12:08:19;;;;;;;2.50;2.00;;;11.40;99.90;;;;;;5140951;27;20481;-42
2021/09/13 12:10:52;;;;;;;2.65;2.45;;;11.50;99.90;;;;;;5141051;27;20183;-42
2021/09/13 12:13:25;;;;;;;3.65;2.25;;;11.40;99.90;;;;;;5145196;27;20198;-42
2021/09/13 12:15:59;;;;;;;3.97;2.40;;;11.50;99.90;;;;;;5135055;27;20248;-42
2021/09/13 12:18:32;;;;;;;2.77;2.17;;;11.40;99.90;;;;;;5145298;27;20666;-42
2021/09/13 12:21:04;;;;;;;4.13;2.57;;;11.40;99.90;;;;;;5145508;27;20507;-42
2021/09/13 12:23:40;;;;;;;4.67;3.23;;;11.20;99.90;;;;;;5144564;27;20464;-42
2021/09/13 12:26:11;;;;;;;2.20;2.00;;;11.20;99.90;;;;;;5144515;27;20449;-43
2021/09/13 12:28:41;;;;;;;4.30;3.90;;;11.10;99.90;;;;;;5144699;27;20472;-42
2021/09/13 12:31:12;;;;;;;3.73;2.70;;;11.20;99.90;;;;;;5145079;27;20480;-42
2021/09/13 12:33:46;;;;;;;2.30;2.10;;;11.20;99.90;;;;;;5144423;27;20510;-42
2021/09/13 12:36:18;;;;;;;3.17;2.75;;;11.10;99.90;;;;;;5144224;27;20505;-42
2021/09/13 12:38:52;;;;;;;2.93;2.03;;;11.10;99.90;;;;;;5142518;27;20210;-42
2021/09/13 12:41:33;;;;;;;2.70;1.80;;;11.00;99.90;;;;;;5144603;27;20471;-43
2021/09/13 12:44:15;;;;;;;2.92;2.45;;;10.90;99.90;;;;;;5140982;27;20191;-42
2021/09/13 12:46:48;;;;;;;4.87;3.13;;;10.90;99.90;;;;;;5142476;27;20191;-42
2021/09/13 12:49:19;;;;;;;5.10;2.37;;;10.90;99.90;;;;;;5144412;27;20932;-41
2021/09/13 12:51:57;;;;;;;2.90;2.70;;;10.90;99.90;;;;;;5140041;27;20470;-42
2021/09/13 12:54:33;;;;;;;3.92;2.90;;;10.90;99.90;;;;;;5142677;27;20521;-42
2021/09/13 12:57:05;;;;;;;3.38;2.40;;;10.90;99.90;;;;;;5144717;27;20234;-42
2021/09/13 12:59:36;;;;;;;2.90;2.03;;;10.90;99.90;;;;;;5143681;27;20215;-42
2021/09/13 13:02:15;;;;;;;3.13;2.60;;;10.90;99.90;;;;;;5143786;27;20202;-42
2021/09/13 13:04:47;;;;;;;5.70;2.80;;;10.90;99.90;;;;;;5144120;27;20595;-42
2021/09/13 13:07:18;;;;;;;2.97;2.33;;;10.80;99.90;;;;;;5126956;27;20452;-42
2021/09/13 13:09:51;;;;;;;4.10;2.47;;;10.80;99.90;;;;;;5142876;27;20479;-42
2021/09/13 13:12:22;;;;;;;4.25;2.50;;;10.80;99.90;;;;;;5143923;27;20199;-42
2021/09/13 13:14:57;;;;;;;4.25;2.78;;;10.80;99.90;;;;;;5143891;27;20534;-42
2021/09/13 13:17:32;;;;;;;3.55;2.88;;;10.80;99.90;;;;;;5144303;27;20179;-42